createdAt,value
2019-03-22T00:00:46.632Z,10.00
2019-03-22T00:05:53.372Z,10.00
2019-03-22T00:11:00.005Z,10.00
2019-03-22T00:16:06.834Z,10.00
2019-03-22T00:21:13.474Z,10.00
2019-03-22T00:26:20.097Z,10.00
2019-03-22T00:31:26.761Z,9.90
2019-03-22T00:36:33.383Z,9.90
2019-03-22T00:41:40.202Z,9.90
2019-03-22T00:46:46.883Z,9.90
2019-03-22T00:51:53.484Z,9.90
2019-03-22T00:57:00.146Z,9.70
2019-03-22T01:02:06.830Z,9.70
2019-03-22T01:07:13.443Z,9.90
2019-03-22T01:12:20.234Z,9.90
2019-03-22T01:17:26.929Z,9.80
2019-03-22T01:22:33.545Z,9.80
2019-03-22T01:27:41.274Z,9.80
2019-03-22T01:32:48.302Z,9.80
2019-03-22T01:37:54.873Z,9.80
2019-03-22T01:43:01.519Z,9.80
2019-03-22T01:48:08.304Z,9.80
2019-03-22T01:53:14.985Z,9.80
2019-03-22T01:58:21.642Z,9.80
2019-03-22T02:03:28.256Z,9.80
2019-03-22T02:08:34.902Z,9.60
2019-03-22T02:13:41.470Z,9.50
2019-03-22T02:18:48.185Z,9.30
2019-03-22T02:23:54.770Z,9.40
2019-03-22T02:29:01.316Z,9.40
2019-03-22T02:34:08.123Z,9.50
2019-03-22T02:39:15.253Z,9.40
2019-03-22T02:44:22.058Z,9.40
2019-03-22T02:49:28.671Z,9.20
2019-03-22T02:54:35.394Z,9.40
2019-03-22T02:59:42.061Z,9.40
2019-03-22T03:04:48.770Z,9.10
2019-03-22T03:09:55.589Z,9.20
2019-03-22T03:15:02.269Z,9.10
2019-03-22T03:20:11.431Z,9.20
2019-03-22T03:25:18.266Z,9.10
2019-03-22T03:30:24.904Z,9.10
2019-03-22T03:35:31.448Z,9.20
2019-03-22T03:40:38.387Z,9.20
2019-03-22T03:45:45.094Z,9.10
2019-03-22T03:50:51.803Z,9.00
2019-03-22T03:55:58.599Z,9.10
2019-03-22T04:01:05.237Z,9.10
2019-03-22T04:06:11.856Z,9.20
2019-03-22T04:11:18.483Z,9.00
2019-03-22T04:16:25.128Z,9.00
2019-03-22T04:21:31.770Z,9.10
2019-03-22T04:26:38.290Z,8.90
2019-03-22T04:31:44.899Z,8.70
2019-03-22T04:36:51.654Z,8.80
2019-03-22T04:41:58.291Z,8.90
2019-03-22T04:47:06.017Z,8.60
2019-03-22T04:52:12.901Z,8.70
2019-03-22T04:57:20.403Z,8.40
2019-03-22T05:02:27.924Z,8.50
2019-03-22T05:07:35.331Z,8.50
2019-03-22T05:12:43.881Z,8.50
2019-03-22T05:17:50.594Z,8.20
2019-03-22T05:22:57.757Z,8.20
2019-03-22T05:28:08.832Z,8.30
2019-03-22T05:33:17.831Z,8.30
2019-03-22T05:38:24.415Z,8.30
2019-03-22T05:43:31.035Z,8.30
2019-03-22T05:48:37.718Z,8.20
2019-03-22T05:53:44.467Z,8.10
2019-03-22T05:58:51.019Z,8.10
2019-03-22T06:03:57.633Z,8.10
2019-03-22T06:09:05.389Z,8.10
2019-03-22T06:14:12.081Z,7.90
2019-03-22T06:19:18.775Z,8.00
2019-03-22T06:24:25.503Z,7.80
2019-03-22T06:29:32.067Z,7.60
2019-03-22T06:34:38.693Z,7.80
2019-03-22T06:39:45.381Z,7.60
2019-03-22T06:44:52.084Z,7.70
2019-03-22T06:49:59.824Z,7.70
2019-03-22T06:55:08.848Z,7.50
2019-03-22T07:00:15.697Z,7.50
2019-03-22T07:05:22.391Z,7.50
2019-03-22T07:10:29.053Z,7.40
2019-03-22T07:15:35.773Z,7.40
2019-03-22T07:20:42.548Z,7.50
2019-03-22T07:25:49.248Z,7.50
2019-03-22T07:30:55.888Z,7.50
2019-03-22T07:36:02.593Z,7.30
2019-03-22T07:41:09.206Z,7.40
2019-03-22T07:46:15.887Z,7.10
2019-03-22T07:51:22.483Z,7.40
2019-03-22T07:56:29.120Z,7.50
2019-03-22T08:01:35.810Z,7.40
2019-03-22T08:06:42.441Z,7.60
2019-03-22T08:11:49.128Z,7.70
2019-03-22T08:16:55.799Z,7.60
2019-03-22T08:22:02.393Z,7.70
2019-03-22T08:27:09.047Z,7.70
2019-03-22T08:32:15.789Z,7.80
2019-03-22T08:37:22.342Z,7.90
2019-03-22T08:42:29.144Z,7.90
2019-03-22T08:47:35.960Z,8.00
2019-03-22T08:52:42.757Z,8.10
2019-03-22T08:57:49.591Z,8.20
2019-03-22T09:02:56.355Z,8.30
2019-03-22T09:08:03.147Z,8.40
2019-03-22T09:13:09.841Z,8.60
2019-03-22T09:18:16.839Z,8.60
2019-03-22T09:23:23.481Z,8.80
2019-03-22T09:28:30.118Z,8.80
2019-03-22T09:33:36.767Z,8.80
2019-03-22T09:38:43.483Z,9.10
2019-03-22T09:43:50.187Z,9.20
2019-03-22T09:48:57.046Z,9.30
2019-03-22T09:54:03.609Z,9.40
2019-03-22T09:59:10.385Z,9.50
2019-03-22T10:04:17.267Z,9.70
2019-03-22T10:09:23.936Z,9.80
2019-03-22T10:14:31.491Z,9.90
2019-03-22T10:19:38.375Z,10.80
2019-03-22T10:24:44.975Z,11.50
2019-03-22T10:29:51.708Z,11.50
2019-03-22T10:35:03.003Z,11.80
2019-03-22T10:40:11.803Z,12.10
2019-03-22T10:45:18.397Z,12.20
2019-03-22T10:50:25.115Z,12.10
2019-03-22T10:55:31.822Z,12.20
2019-03-22T11:00:38.535Z,12.30
2019-03-22T11:05:45.281Z,12.20
2019-03-22T11:10:52.022Z,12.20
2019-03-22T11:15:58.806Z,12.00
2019-03-22T11:21:05.803Z,12.10
2019-03-22T11:26:12.698Z,12.30
2019-03-22T11:31:27.428Z,12.20
2019-03-22T11:36:27.946Z,12.20
2019-03-22T11:41:34.886Z,12.30
2019-03-22T11:46:41.603Z,12.40
2019-03-22T11:51:48.230Z,12.20
2019-03-22T11:56:55.110Z,12.30
2019-03-22T12:02:01.992Z,12.40
2019-03-22T12:07:09.764Z,12.50
2019-03-22T12:12:16.495Z,12.60
2019-03-22T12:17:23.171Z,12.70
2019-03-22T12:22:29.951Z,12.80
2019-03-22T12:27:37.010Z,12.90
2019-03-22T12:32:43.724Z,13.00
2019-03-22T12:37:50.430Z,13.10
2019-03-22T12:42:57.110Z,13.20
2019-03-22T12:48:04.015Z,13.40
2019-03-22T12:53:10.773Z,13.50
2019-03-22T12:58:17.579Z,13.60
2019-03-22T13:03:24.466Z,13.60
2019-03-22T13:08:31.307Z,13.70
2019-03-22T13:13:37.998Z,13.80
2019-03-22T13:18:50.180Z,13.90
2019-03-22T13:23:52.883Z,13.90
2019-03-22T13:28:59.617Z,13.90
2019-03-22T13:34:06.247Z,13.90
2019-03-22T13:39:12.969Z,14.10
2019-03-22T13:44:20.273Z,14.20
2019-03-22T13:49:30.439Z,14.40
2019-03-22T13:54:37.091Z,14.40
2019-03-22T13:59:43.785Z,14.40
2019-03-22T14:04:50.513Z,14.50
2019-03-22T14:09:57.385Z,14.70
2019-03-22T14:15:04.667Z,14.90
2019-03-22T14:20:12.326Z,14.90
2019-03-22T14:25:18.999Z,15.30
2019-03-22T14:30:25.979Z,15.30
2019-03-22T14:35:32.761Z,15.20
2019-03-22T14:40:39.603Z,15.20
2019-03-22T14:45:46.518Z,15.50
2019-03-22T14:50:53.350Z,15.50
2019-03-22T14:56:00.077Z,15.40
2019-03-22T15:01:06.944Z,15.80
2019-03-22T15:06:13.822Z,15.50
2019-03-22T15:11:20.657Z,15.50
2019-03-22T15:17:04.368Z,16.00
2019-03-22T15:22:36.211Z,15.80
2019-03-22T15:27:54.458Z,16.10
2019-03-22T15:33:33.972Z,16.10
2019-03-22T15:38:43.127Z,16.20
2019-03-22T15:43:49.976Z,16.20
2019-03-22T15:54:35.017Z,15.90
2019-03-22T15:59:41.886Z,16.20
2019-03-22T16:04:48.643Z,16.00
2019-03-22T16:09:55.337Z,15.80
2019-03-22T16:15:02.029Z,15.30
2019-03-22T16:20:09.430Z,14.80
2019-03-22T16:25:16.267Z,14.90
2019-03-22T16:30:23.039Z,14.70
2019-03-22T16:35:29.598Z,14.50
2019-03-22T16:40:37.624Z,14.30
2019-03-22T16:45:44.494Z,13.90
2019-03-22T16:50:51.209Z,13.60
2019-03-22T16:55:57.908Z,13.70
2019-03-22T17:01:06.041Z,13.60
2019-03-22T17:06:12.678Z,13.60
2019-03-22T17:11:19.321Z,13.30
2019-03-22T17:16:25.987Z,13.00
2019-03-22T17:21:32.692Z,12.60
2019-03-22T17:26:39.612Z,12.20
2019-03-22T17:31:46.303Z,11.70
2019-03-22T17:36:52.975Z,11.40
2019-03-22T17:41:59.658Z,11.10
2019-03-22T17:47:06.292Z,10.70
2019-03-22T17:52:12.879Z,10.60
2019-03-22T17:57:19.421Z,10.60
2019-03-22T18:02:26.137Z,10.40
2019-03-22T18:07:32.786Z,10.50
2019-03-22T18:12:39.539Z,10.00
2019-03-22T18:17:46.087Z,9.70
2019-03-22T18:22:53.055Z,9.70
2019-03-22T18:27:59.613Z,9.50
2019-03-22T18:33:06.305Z,9.40
2019-03-22T18:38:13.098Z,9.60
2019-03-22T18:43:19.941Z,9.60
2019-03-22T18:48:26.574Z,9.70
2019-03-22T18:53:33.067Z,9.70
2019-03-22T18:58:39.743Z,9.50
2019-03-22T19:03:46.566Z,9.60
2019-03-22T19:08:53.402Z,9.50
2019-03-22T19:14:01.833Z,9.40
2019-03-22T19:19:10.900Z,9.40
2019-03-22T19:24:17.555Z,9.30
2019-03-22T19:29:24.249Z,9.20
2019-03-22T19:34:31.043Z,9.30
2019-03-22T19:39:37.994Z,9.30
2019-03-22T19:44:44.710Z,9.40
2019-03-22T19:49:51.408Z,9.50
2019-03-22T19:54:58.125Z,9.60
2019-03-22T20:00:05.763Z,9.60
2019-03-22T20:05:13.430Z,9.50
2019-03-22T20:10:19.989Z,9.20
2019-03-22T20:15:26.879Z,9.20
2019-03-22T20:20:33.606Z,9.20
2019-03-22T20:25:40.179Z,9.20
2019-03-22T20:30:47.286Z,9.30
2019-03-22T20:35:54.170Z,9.20
2019-03-22T20:41:00.981Z,9.30
2019-03-22T20:46:07.613Z,9.10
2019-03-22T20:51:15.292Z,9.20
2019-03-22T20:56:22.227Z,9.20
2019-03-22T21:01:28.739Z,9.30
2019-03-22T21:06:35.570Z,9.30
2019-03-22T21:11:42.208Z,9.40
2019-03-22T21:16:48.914Z,9.40
2019-03-22T21:21:55.660Z,9.50
2019-03-22T21:27:02.525Z,9.40
2019-03-22T21:32:09.165Z,9.50
2019-03-22T21:37:15.673Z,9.50
2019-03-22T21:42:22.243Z,9.60
2019-03-22T21:47:28.809Z,9.60
2019-03-22T21:52:35.390Z,9.50
2019-03-22T21:57:41.999Z,9.50
2019-03-22T22:02:48.470Z,9.50
2019-03-22T22:07:55.140Z,9.50
2019-03-22T22:13:01.687Z,9.60
2019-03-22T22:18:08.327Z,9.70
2019-03-22T22:23:14.827Z,9.70
2019-03-22T22:28:21.459Z,9.70
2019-03-22T22:33:28.148Z,9.60
2019-03-22T22:38:34.730Z,9.60
2019-03-22T22:43:41.339Z,9.60
2019-03-22T22:48:47.854Z,9.70
2019-03-22T22:53:54.503Z,9.60
2019-03-22T22:59:00.926Z,9.60
2019-03-22T23:04:07.401Z,9.70
2019-03-22T23:09:13.998Z,9.70
2019-03-22T23:14:20.506Z,9.80
2019-03-22T23:19:26.973Z,9.80
2019-03-22T23:24:33.529Z,9.80
2019-03-22T23:29:40.110Z,9.80
2019-03-22T23:34:46.580Z,9.90
2019-03-22T23:39:53.139Z,9.90
2019-03-22T23:44:59.722Z,9.90
2019-03-22T23:50:06.705Z,9.90
2019-03-22T23:55:14.390Z,10.00
